Fort Huachuca, AZ (85613)

10:32 AM MST on September 16, 2014 (GMT -0700)
Pershing Plaza West | Change Station
CLOSE
Current Station
Personal Weather Station
Location: Fort Huachuca, AZ
Elevation: 4915 ft
Nearby Weather Stations
Active Advisory: Flash Flood Watch

Elev 4915 ft 31.56 °N, 110.35 °W | Updated 6 seconds ago

Overcast
Overcast
66.4 °F
Feels Like 66.4 °F
N
13.0
Wind Variable Wind from North
Gusts 13.0 mph

Today
High -- | Low -- °F
--% Chance of Precip.
Yesterday
High -- | Low -- °F
Precip. -- in
6:06 AM 6:25 PM
Last Quarter, 44% visible
Pressure 30.17 in
Visibility 10.0 miles
Clouds Scattered Clouds 700 ft
Mostly Cloudy 2000 ft
Overcast 2400 ft
Dew Point 66 °F
Humidity 97%
Rainfall 0.21 in
Snow Depth 1 in , 0 in , 18 in
UV 3 out of 12
Pollen 3.80 out of 12
Air Quality Not available.
Flu Activity Not available.
SPECI KFHU 161726Z 03005KT 10SM SCT007 BKN020 OVC024 19/18 A3017

More Conditions Fewer Conditions

Pressure 30.17 in
Visibility 10.0 miles
Clouds Scattered Clouds 700 ft
Mostly Cloudy 2000 ft
Overcast 2400 ft
Dew Point 66 °F
Humidity 97%
Rainfall 0.21 in
Snow Depth 1 in , 0 in , 18 in
UV 3 out of 12
Pollen 3.80 out of 12
Air Quality Not available.
Flu Activity Not available.
SPECI KFHU 161726Z 03005KT 10SM SCT007 BKN020 OVC024 19/18 A3017

More Conditions Fewer Conditions

10-Day Weather Forecast

Almanac

Astronomy

Sep. 16, 2014 Rise Set
Actual Time 6:06 AM MST 6:25 PM MST
Civil Twilight 5:41 AM MST 6:50 PM MST
Nautical Twilight 5:13 AM MST 7:18 PM MST
Astronomical Twilight 4:44 AM MST 7:47 PM MST
Moon No Moon Rise 1:36 PM MST
Length of Visible Light 13h 08m
Length of Day
12h 19m
Tomorrow will be 1m 54s shorter.
Last Quarter, 44% of the Moon is Illuminated
Today
Last Quarter
Sep 24
New
Oct 1
First Quarter
Oct 8
Full
Oct 15
Last Quarter

Today's Extremes

State Highs State Lows

Community

WunderPhotos

Upload Photos

1,753,838 photos uploaded!

Nearby

Snow Depth

Station Depth Elevation
Maverick Fork 0 in 9200 ft
Workman Creek 1 in 6900 ft
Wildcat 0 in 7850 ft
Beaver Head 18 in 7990 ft
Heber 0 in 7640 ft

Earthquake Activity

City Distance Mag. Time & Date
No recent earthquake activity has been reported nearby.
Minimum magnitude displayed is 2.5.

Coastal Water Temperatures

Place Temperature
No Stations Reporting

Nearby Weather Stations